Time;durP1;ratioP1;P1;durP2;ratioP2;P2;SDS_P1;SDS_P2;PMS_P1;PMS_P2;Temp;Humidity;BMP_temperature;BMP_pressure;BME280_temperature;BME280_humidity;BME280_pressure;Samples;Min_cycle;Max_cycle;Signal;HPM_P1;HPM_P2
2023/01/20 00:02:15;;;;;;;1.23;0.80;;;1.10;99.90;;;;;;7413737;19;19958;-72
2023/01/20 00:04:44;;;;;;;0.88;0.70;;;0.90;99.90;;;;;;7413086;19;19941;-72
2023/01/20 00:07:13;;;;;;;1.42;0.90;;;0.80;99.90;;;;;;7409112;19;20500;-72
2023/01/20 00:09:42;;;;;;;2.58;0.90;;;0.60;99.90;;;;;;7412139;19;19983;-72
2023/01/20 00:12:11;;;;;;;5.25;0.95;;;0.60;99.90;;;;;;7417331;19;19932;-73
2023/01/20 00:14:42;;;;;;;1.67;0.80;;;0.40;99.90;;;;;;7424209;19;19919;-72
2023/01/20 00:17:14;;;;;;;1.48;0.70;;;0.60;99.90;;;;;;7436417;19;19934;-72
2023/01/20 00:19:43;;;;;;;2.47;1.15;;;0.50;99.90;;;;;;7436086;19;20244;-72
2023/01/20 00:22:12;;;;;;;1.90;1.00;;;0.20;99.90;;;;;;7431415;19;20269;-72
2023/01/20 00:24:42;;;;;;;3.03;0.77;;;;;;;;;;7439702;19;19926;-72
2023/01/20 00:27:11;;;;;;;1.70;0.60;;;0.10;99.90;;;;;;7433174;19;20299;-72
2023/01/20 00:29:43;;;;;;;2.13;0.77;;;-0.50;99.90;;;;;;7415204;19;19915;-73
2023/01/20 00:32:13;;;;;;;3.70;0.80;;;-0.70;99.90;;;;;;7391442;19;20285;-72
2023/01/20 00:34:42;;;;;;;2.42;1.13;;;0.10;99.90;;;;;;7435987;19;20300;-72
2023/01/20 00:37:11;;;;;;;9.25;0.95;;;-0.20;99.90;;;;;;7438522;19;19923;-73
2023/01/20 00:39:40;;;;;;;0.95;0.60;;;-0.70;99.90;;;;;;7437498;19;20244;-72
2023/01/20 00:42:09;;;;;;;4.47;0.85;;;0.10;99.90;;;;;;7436090;19;19919;-72
2023/01/20 00:44:45;;;;;;;4.10;0.77;;;-0.20;99.90;;;;;;7436588;19;19923;-72
2023/01/20 00:47:14;;;;;;;4.78;1.23;;;0.60;99.90;;;;;;7436642;19;19911;-72
2023/01/20 00:49:43;;;;;;;1.98;1.10;;;0.30;99.90;;;;;;7433701;19;19945;-72
2023/01/20 00:52:12;;;;;;;3.28;1.10;;;-1.00;99.90;;;;;;7424518;19;19915;-72
2023/01/20 00:54:41;;;;;;;1.65;0.90;;;0.00;99.90;;;;;;7404491;19;20364;-73
2023/01/20 00:57:10;;;;;;;2.42;1.15;;;0.10;99.90;;;;;;7403033;19;20358;-71
2023/01/20 00:59:39;;;;;;;2.33;0.80;;;;;;;;;;7410542;19;19919;-71
2023/01/20 01:02:11;;;;;;;0.82;0.82;;;0.00;99.90;;;;;;7408742;19;19923;-72
2023/01/20 01:04:45;;;;;;;1.70;0.85;;;-0.50;99.90;;;;;;7409272;19;19923;-71
2023/01/20 01:07:14;;;;;;;4.30;0.95;;;-0.60;99.90;;;;;;7410553;19;20335;-71
2023/01/20 01:09:43;;;;;;;2.50;0.90;;;;;;;;;;7407005;19;19918;-72
2023/01/20 01:12:17;;;;;;;3.35;0.70;;;-0.60;99.90;;;;;;7407193;19;20275;-72
2023/01/20 01:14:46;;;;;;;3.42;1.25;;;-1.30;99.90;;;;;;7407228;19;19918;-71
2023/01/20 01:17:17;;;;;;;1.52;1.40;;;-0.80;99.90;;;;;;7409575;19;20007;-72
2023/01/20 01:19:50;;;;;;;3.17;1.30;;;-1.20;99.90;;;;;;7406782;19;19922;-72
2023/01/20 01:22:19;;;;;;;2.22;1.20;;;-1.30;99.90;;;;;;7406647;19;20352;-71
2023/01/20 01:24:48;;;;;;;1.60;1.20;;;-0.30;99.90;;;;;;7407420;19;20256;-71
2023/01/20 01:27:18;;;;;;;4.75;1.80;;;-0.10;99.90;;;;;;7406602;19;19937;-71
2023/01/20 01:29:46;;;;;;;2.45;1.60;;;-1.10;99.90;;;;;;7406759;19;20324;-72
2023/01/20 01:32:19;;;;;;;2.55;1.80;;;0.00;99.90;;;;;;7407080;19;19935;-72
2023/01/20 01:34:48;;;;;;;;;;;-0.50;99.90;;;;;;7413485;19;19929;-72
2023/01/20 01:37:17;;;;;;;2.70;1.75;;;0.00;99.90;;;;;;7409148;19;20276;-71
2023/01/20 01:39:46;;;;;;;3.47;1.63;;;0.30;99.90;;;;;;7406150;19;19932;-71
2023/01/20 01:42:16;;;;;;;5.07;2.00;;;0.00;99.90;;;;;;7405293;19;19929;-71
2023/01/20 01:45:24;;;;;;;4.88;2.28;;;-0.10;99.90;;;;;;7406169;19;19943;-71
2023/01/20 01:48:12;;;;;;;4.97;2.30;;;0.20;99.90;;;;;;7409466;19;19926;-71
2023/01/20 01:50:46;;;;;;;3.72;2.35;;;-0.40;99.90;;;;;;7407032;19;20032;-71
2023/01/20 01:53:16;;;;;;;5.32;2.65;;;0.10;99.90;;;;;;7406232;19;20245;-71
2023/01/20 01:55:49;;;;;;;4.05;2.35;;;-0.50;99.90;;;;;;7410260;19;19922;-72
2023/01/20 01:58:22;;;;;;;5.35;2.65;;;0.20;99.90;;;;;;7404250;19;19931;-72
2023/01/20 02:00:52;;;;;;;4.28;3.10;;;0.20;99.90;;;;;;7405415;19;19915;-71
2023/01/20 02:03:24;;;;;;;4.85;2.90;;;-1.30;99.90;;;;;;7403948;19;19918;-72
2023/01/20 02:05:56;;;;;;;5.55;2.88;;;0.00;99.90;;;;;;7404168;19;19922;-71
2023/01/20 02:08:27;;;;;;;5.82;3.45;;;-0.70;99.90;;;;;;7408689;19;19915;-71
2023/01/20 02:10:56;;;;;;;6.32;3.22;;;-1.30;99.90;;;;;;7406523;19;19921;-71
2023/01/20 02:13:29;;;;;;;5.80;3.28;;;0.20;99.90;;;;;;7406085;19;19945;-72
2023/01/20 02:16:07;;;;;;;5.43;3.20;;;0.00;99.90;;;;;;7405802;19;19937;-72
2023/01/20 02:18:42;;;;;;;;;;;-0.30;99.90;;;;;;7408016;19;19918;-72
2023/01/20 02:21:43;;;;;;;4.78;3.33;;;-0.40;99.90;;;;;;7406250;19;20265;-72
2023/01/20 02:24:44;;;;;;;7.03;3.88;;;-1.20;99.90;;;;;;7405773;19;19937;-71
2023/01/20 02:27:22;;;;;;;6.07;3.63;;;-1.40;99.90;;;;;;7403965;19;19921;-71
2023/01/20 02:30:15;;;;;;;5.75;3.70;;;-1.20;99.90;;;;;;7404939;19;19918;-72
2023/01/20 02:32:53;;;;;;;4.85;3.28;;;-0.10;99.90;;;;;;7405911;19;20310;-71
2023/01/20 02:35:27;;;;;;;5.25;3.38;;;-0.50;99.90;;;;;;7406281;19;19919;-71
2023/01/20 02:38:12;;;;;;;9.20;3.85;;;-0.30;99.90;;;;;;7405722;19;19982;-72
2023/01/20 02:40:48;;;;;;;7.70;4.00;;;-0.60;99.90;;;;;;7406539;19;19930;-72
2023/01/20 02:43:24;;;;;;;8.48;3.80;;;-0.60;99.90;;;;;;7406802;19;20323;-71
2023/01/20 02:46:01;;;;;;;4.97;3.72;;;-0.70;99.90;;;;;;7408118;19;20271;-71
2023/01/20 02:48:41;;;;;;;5.63;3.58;;;-1.20;99.90;;;;;;7407578;19;19923;-71
2023/01/20 02:51:18;;;;;;;8.50;4.05;;;-1.00;99.90;;;;;;7405834;19;19930;-72
2023/01/20 02:53:52;;;;;;;8.70;4.03;;;-0.10;99.90;;;;;;7404760;19;19922;-71
2023/01/20 02:56:25;;;;;;;7.30;3.95;;;-0.20;99.90;;;;;;7407128;19;19918;-72
2023/01/20 02:58:59;;;;;;;7.43;4.18;;;-1.40;99.90;;;;;;7406261;19;19939;-71
2023/01/20 03:01:33;;;;;;;7.45;4.75;;;-0.60;99.90;;;;;;7403908;19;19918;-71
2023/01/20 03:04:08;;;;;;;10.23;5.30;;;-0.50;99.90;;;;;;7404599;19;19919;-72
2023/01/20 03:06:40;;;;;;;7.68;4.43;;;-0.50;99.90;;;;;;7405933;19;19923;-71
2023/01/20 03:09:14;;;;;;;9.57;4.53;;;-0.30;99.90;;;;;;7404036;19;19990;-71
2023/01/20 03:11:52;;;;;;;7.85;4.32;;;-1.20;99.90;;;;;;7403833;19;19918;-71
2023/01/20 03:14:21;;;;;;;7.85;4.65;;;-0.60;99.90;;;;;;7406900;19;19918;-71
2023/01/20 03:17:00;;;;;;;10.13;5.32;;;-0.10;99.90;;;;;;7408144;19;19918;-71
2023/01/20 03:19:32;;;;;;;9.70;5.38;;;-1.20;99.90;;;;;;7403918;19;19911;-71
2023/01/20 03:22:01;;;;;;;8.15;4.65;;;-0.70;99.90;;;;;;7402759;19;19919;-71
2023/01/20 03:24:34;;;;;;;7.68;4.65;;;-0.30;99.90;;;;;;7403395;19;19915;-72
2023/01/20 03:27:03;;;;;;;9.57;4.70;;;0.00;99.90;;;;;;7402763;19;19914;-71
2023/01/20 03:29:32;;;;;;;9.32;5.60;;;-0.80;99.90;;;;;;7406958;19;19926;-71
2023/01/20 03:32:03;;;;;;;9.88;5.00;;;-0.20;99.90;;;;;;7404134;19;19947;-71
2023/01/20 03:34:39;;;;;;;9.00;5.63;;;-0.30;99.90;;;;;;7406325;19;19921;-72
2023/01/20 03:37:09;;;;;;;8.38;4.80;;;-0.60;99.90;;;;;;7406143;19;19914;-71
2023/01/20 03:39:40;;;;;;;7.63;5.00;;;0.00;99.90;;;;;;7402695;19;19931;-71
2023/01/20 03:42:13;;;;;;;7.10;3.67;;;-1.10;99.90;;;;;;7401979;19;19930;-71
2023/01/20 03:44:59;;;;;;;9.50;4.85;;;-1.10;99.90;;;;;;7402804;19;19974;-71
2023/01/20 03:47:37;;;;;;;8.05;4.00;;;-1.40;99.90;;;;;;7402608;19;19918;-71
2023/01/20 03:50:15;;;;;;;;;;;-0.60;99.90;;;;;;7407871;19;19918;-72
2023/01/20 03:52:47;;;;;;;9.18;4.97;;;-0.10;99.90;;;;;;7406945;19;19918;-71
2023/01/20 03:55:21;;;;;;;7.00;4.60;;;-0.40;99.90;;;;;;7403145;19;19945;-72
2023/01/20 03:57:58;;;;;;;6.55;4.32;;;-0.60;99.90;;;;;;7401865;19;19941;-72
2023/01/20 04:00:29;;;;;;;7.13;4.03;;;-0.80;99.90;;;;;;7402975;19;20307;-72
2023/01/20 04:03:00;;;;;;;7.43;4.75;;;-0.80;99.90;;;;;;7400107;19;20643;-72
2023/01/20 04:05:32;;;;;;;7.82;4.10;;;-0.70;99.90;;;;;;7406270;19;19943;-72
2023/01/20 04:08:09;;;;;;;6.63;4.22;;;-0.20;99.90;;;;;;7406759;19;19918;-71
2023/01/20 04:10:42;;;;;;;6.57;3.95;;;-1.20;99.90;;;;;;7403656;19;19986;-72
2023/01/20 04:13:10;;;;;;;;;;;-0.50;99.90;;;;;;7404959;19;20000;-72
2023/01/20 04:15:43;;;;;;;6.85;4.60;;;-0.50;99.90;;;;;;7401555;19;20263;-72
2023/01/20 04:18:12;;;;;;;;;;;-0.40;99.90;;;;;;7404215;19;20263;-72
2023/01/20 04:20:45;;;;;;;7.88;4.65;;;-1.10;99.90;;;;;;7402414;19;19929;-72
2023/01/20 04:23:19;;;;;;;;;;;-0.50;99.90;;;;;;7403324;19;19911;-72
2023/01/20 04:25:48;;;;;;;6.43;4.05;;;-0.60;99.90;;;;;;7401466;19;19923;-72
2023/01/20 04:28:17;;;;;;;9.38;5.35;;;-0.80;99.90;;;;;;7407061;19;19921;-72
2023/01/20 04:30:46;;;;;;;8.13;5.10;;;0.00;99.90;;;;;;7408217;19;19938;-72
2023/01/20 04:33:14;;;;;;;10.35;6.28;;;-0.70;99.90;;;;;;7411130;19;20363;-72
2023/01/20 04:35:47;;;;;;;10.70;5.50;;;-0.60;99.90;;;;;;7408240;19;20339;-72
2023/01/20 04:38:16;;;;;;;12.35;5.47;;;-0.40;99.90;;;;;;7408257;19;19930;-72
2023/01/20 04:40:45;;;;;;;10.45;5.22;;;-0.60;99.90;;;;;;7410306;19;19974;-72
2023/01/20 04:43:14;;;;;;;9.13;5.28;;;-0.90;99.90;;;;;;7405978;19;19970;-72
2023/01/20 04:45:43;;;;;;;10.50;5.82;;;0.00;99.90;;;;;;7408071;19;19970;-73
2023/01/20 04:48:13;;;;;;;11.77;6.50;;;-0.80;99.90;;;;;;7408371;19;19918;-72
2023/01/20 04:50:42;;;;;;;14.63;7.05;;;-0.60;99.90;;;;;;7409664;19;20340;-72
2023/01/20 04:53:18;;;;;;;14.38;7.13;;;-0.40;99.90;;;;;;7407848;19;19958;-72
2023/01/20 04:55:47;;;;;;;13.52;6.75;;;-0.10;99.90;;;;;;7408065;19;19950;-72
2023/01/20 04:58:16;;;;;;;10.77;5.53;;;-1.30;99.90;;;;;;7407706;19;20315;-72
2023/01/20 05:00:45;;;;;;;11.60;5.78;;;-1.80;99.90;;;;;;7408054;19;19960;-72
2023/01/20 05:03:14;;;;;;;15.45;7.68;;;-0.70;99.90;;;;;;7406238;19;19926;-72
2023/01/20 05:05:43;;;;;;;14.45;8.25;;;-0.70;99.90;;;;;;7408654;19;19934;-72
2023/01/20 05:08:15;;;;;;;16.05;6.60;;;-1.60;99.90;;;;;;7408434;19;19936;-72
2023/01/20 05:10:45;;;;;;;13.88;6.82;;;-1.50;99.90;;;;;;7406752;19;20271;-72
2023/01/20 05:13:13;;;;;;;13.73;6.35;;;-1.40;99.90;;;;;;7409510;19;20428;-72
2023/01/20 05:15:43;;;;;;;15.95;8.68;;;-0.60;99.90;;;;;;7409546;19;19922;-72
2023/01/20 05:18:12;;;;;;;15.57;8.10;;;-1.50;99.90;;;;;;7410754;19;19918;-71
2023/01/20 05:20:41;;;;;;;14.15;8.02;;;-1.40;99.90;;;;;;7407797;19;19945;-72
2023/01/20 05:23:10;;;;;;;14.40;7.38;;;-0.40;99.90;;;;;;7406513;19;20399;-71
2023/01/20 05:25:42;;;;;;;16.45;7.63;;;-1.80;99.90;;;;;;7407279;19;19937;-73
2023/01/20 05:28:11;;;;;;;12.15;6.32;;;-0.70;99.90;;;;;;7406482;19;19936;-73
2023/01/20 05:30:40;;;;;;;16.35;8.00;;;;;;;;;;7405852;19;19922;-72
2023/01/20 05:33:09;;;;;;;14.02;6.88;;;-1.70;99.90;;;;;;7408166;19;19991;-72
2023/01/20 05:35:39;;;;;;;14.70;6.95;;;-0.80;99.90;;;;;;7409769;19;19927;-72
2023/01/20 05:38:08;;;;;;;16.55;8.35;;;-0.70;99.90;;;;;;7406329;19;19919;-72
2023/01/20 05:40:37;;;;;;;14.23;7.05;;;-0.40;99.90;;;;;;7406893;19;20356;-72
2023/01/20 05:43:09;;;;;;;12.70;6.68;;;-1.70;99.90;;;;;;7408022;19;19922;-72
2023/01/20 05:45:38;;;;;;;14.15;6.53;;;-0.60;99.90;;;;;;7409086;19;19918;-72
2023/01/20 05:48:10;;;;;;;15.05;6.65;;;-0.90;99.90;;;;;;7406826;19;19989;-72
2023/01/20 05:50:41;;;;;;;11.80;6.38;;;-0.30;99.90;;;;;;7408742;19;19919;-72
2023/01/20 05:53:11;;;;;;;12.82;5.70;;;;;;;;;;7410065;19;19919;-72
2023/01/20 05:55:40;;;;;;;11.38;5.60;;;-1.30;99.90;;;;;;7406581;19;19922;-72
2023/01/20 05:58:12;;;;;;;14.73;7.45;;;-1.80;99.90;;;;;;7405490;19;19919;-72
2023/01/20 06:00:40;;;;;;;;;;;-1.00;99.90;;;;;;7411111;19;20002;-72
2023/01/20 06:03:10;;;;;;;10.55;5.78;;;-0.30;99.90;;;;;;7405044;19;19915;-72
2023/01/20 06:05:39;;;;;;;10.30;5.38;;;-0.30;99.90;;;;;;7409611;19;19926;-72
2023/01/20 06:08:08;;;;;;;12.25;5.53;;;-0.70;99.90;;;;;;7405397;19;20325;-72
2023/01/20 06:10:37;;;;;;;12.43;5.32;;;-1.50;99.90;;;;;;7405139;19;19926;-72
2023/01/20 06:13:06;;;;;;;12.82;6.05;;;-1.10;99.90;;;;;;7405921;19;19949;-72
2023/01/20 06:15:38;;;;;;;10.50;6.15;;;-0.20;99.90;;;;;;7405574;19;19932;-72
2023/01/20 06:18:11;;;;;;;10.65;5.80;;;-1.30;99.90;;;;;;7405400;19;19922;-72
2023/01/20 06:20:59;;;;;;;13.00;5.05;;;-0.40;99.90;;;;;;7405300;19;19915;-72
2023/01/20 06:23:28;;;;;;;10.52;5.25;;;-1.40;99.90;;;;;;7406578;19;19946;-71
2023/01/20 06:26:03;;;;;;;10.23;5.53;;;-0.30;99.90;;;;;;7404648;19;19931;-72
2023/01/20 06:28:32;;;;;;;11.38;4.80;;;-1.70;99.90;;;;;;7405062;19;19925;-72
2023/01/20 06:31:06;;;;;;;11.57;5.93;;;-1.60;99.90;;;;;;7408360;19;19914;-72
2023/01/20 06:33:44;;;;;;;9.88;5.25;;;-0.80;99.90;;;;;;7405121;19;19986;-72
2023/01/20 06:36:16;;;;;;;9.13;4.95;;;-0.90;99.90;;;;;;7406799;19;19918;-72
2023/01/20 06:38:49;;;;;;;13.35;5.60;;;-1.20;99.90;;;;;;7407318;19;20351;-72
2023/01/20 06:41:20;;;;;;;11.10;5.35;;;-0.70;99.90;;;;;;7407063;19;19918;-71
2023/01/20 06:43:49;;;;;;;9.60;4.95;;;-1.60;99.90;;;;;;7405193;19;19947;-72
2023/01/20 06:46:21;;;;;;;9.13;4.97;;;-1.40;99.90;;;;;;7406424;19;19926;-72
2023/01/20 06:48:51;;;;;;;12.52;5.38;;;-1.20;99.90;;;;;;7408872;19;19933;-72
2023/01/20 06:51:21;;;;;;;9.95;5.45;;;-0.90;99.90;;;;;;7407048;19;19990;-72
2023/01/20 06:53:50;;;;;;;9.65;5.85;;;-0.60;99.90;;;;;;7406945;19;19922;-72
2023/01/20 06:56:19;;;;;;;8.27;4.57;;;-0.40;99.90;;;;;;7404923;19;19918;-72
2023/01/20 06:58:50;;;;;;;10.60;4.85;;;-0.30;99.90;;;;;;7405533;19;20259;-72
2023/01/20 07:01:26;;;;;;;10.38;5.15;;;-0.20;99.90;;;;;;7405295;19;20354;-72
2023/01/20 07:03:55;;;;;;;11.10;4.35;;;-0.80;99.90;;;;;;7402219;19;20359;-72
2023/01/20 07:06:28;;;;;;;9.15;4.53;;;-1.80;99.90;;;;;;7409565;19;20304;-72
2023/01/20 07:08:58;;;;;;;11.15;5.75;;;-1.40;99.90;;;;;;7404168;19;19990;-72
2023/01/20 07:11:27;;;;;;;13.25;4.80;;;-1.10;99.90;;;;;;7403176;19;19926;-72
2023/01/20 07:13:56;;;;;;;11.48;5.75;;;-1.40;99.90;;;;;;7402486;19;19974;-72
2023/01/20 07:16:28;;;;;;;14.30;5.55;;;0.00;99.90;;;;;;7403609;19;19918;-74
2023/01/20 07:18:57;;;;;;;10.20;5.32;;;-1.60;99.90;;;;;;7402613;19;19933;-71
2023/01/20 07:21:27;;;;;;;9.77;5.40;;;-1.00;99.90;;;;;;7405781;19;19923;-71
2023/01/20 07:23:55;;;;;;;12.20;5.25;;;-1.60;99.90;;;;;;7398849;19;20310;-72
2023/01/20 07:26:25;;;;;;;9.75;5.55;;;-0.80;99.90;;;;;;7405946;19;19919;-71
2023/01/20 07:28:55;;;;;;;11.25;5.10;;;-1.60;99.90;;;;;;7402400;19;20320;-71
2023/01/20 07:31:30;;;;;;;14.18;6.55;;;-1.50;99.90;;;;;;7407211;19;19936;-71
2023/01/20 07:33:59;;;;;;;11.55;5.70;;;-1.20;99.90;;;;;;7406996;19;19926;-71
2023/01/20 07:36:28;;;;;;;12.13;6.15;;;-0.80;99.90;;;;;;7403085;19;19922;-72
2023/01/20 07:38:57;;;;;;;11.38;5.63;;;-1.50;99.90;;;;;;7403694;19;19935;-72
2023/01/20 07:41:26;;;;;;;14.80;7.30;;;-0.80;99.90;;;;;;7402535;19;19910;-71
2023/01/20 07:43:55;;;;;;;14.27;5.80;;;-0.80;99.90;;;;;;7403491;19;19919;-72
2023/01/20 07:46:24;;;;;;;14.13;6.68;;;-1.60;99.90;;;;;;7403156;19;19918;-72
2023/01/20 07:48:57;;;;;;;11.70;6.15;;;-1.30;99.90;;;;;;7402087;19;19927;-72
2023/01/20 07:51:27;;;;;;;12.80;6.22;;;-1.00;99.90;;;;;;7404098;19;19915;-72
2023/01/20 07:53:56;;;;;;;12.98;6.53;;;-0.20;99.90;;;;;;7401973;19;19982;-72
2023/01/20 07:56:26;;;;;;;14.73;7.15;;;-1.40;99.90;;;;;;7401923;19;19911;-72
2023/01/20 07:58:56;;;;;;;17.98;7.80;;;-1.20;99.90;;;;;;7402237;19;19922;-71
2023/01/20 08:01:28;;;;;;;18.73;7.72;;;-0.80;99.90;;;;;;7403362;19;19931;-71
2023/01/20 08:04:01;;;;;;;14.02;6.40;;;-0.80;99.90;;;;;;7406964;19;19918;-72
2023/01/20 08:06:38;;;;;;;17.23;8.05;;;-0.60;99.90;;;;;;7408024;19;20335;-72
2023/01/20 08:09:10;;;;;;;17.50;7.80;;;-1.50;99.90;;;;;;7408722;19;20298;-71
2023/01/20 08:11:40;;;;;;;18.25;7.85;;;-0.20;99.90;;;;;;7409868;19;19922;-72
2023/01/20 08:14:09;;;;;;;15.02;7.28;;;-1.10;99.90;;;;;;7408873;19;20470;-71
2023/01/20 08:16:41;;;;;;;19.70;7.80;;;0.10;99.90;;;;;;7411531;19;20259;-72
2023/01/20 08:19:12;;;;;;;15.70;7.03;;;-0.70;99.90;;;;;;7407426;19;19928;-73
2023/01/20 08:21:41;;;;;;;16.77;8.68;;;-1.00;99.90;;;;;;7407836;19;19928;-72
2023/01/20 08:24:12;;;;;;;18.83;8.27;;;-1.40;99.90;;;;;;7406350;19;19918;-71
2023/01/20 08:26:59;;;;;;;15.88;7.40;;;0.10;99.90;;;;;;7411007;19;19941;-71
2023/01/20 08:29:30;;;;;;;17.67;7.75;;;-0.60;99.90;;;;;;7408291;19;19937;-72
2023/01/20 08:32:01;;;;;;;15.75;8.02;;;0.10;99.90;;;;;;7409256;19;19915;-71
2023/01/20 08:34:39;;;;;;;18.17;7.53;;;-0.60;99.90;;;;;;7408059;19;20201;-71
2023/01/20 08:37:08;;;;;;;21.20;9.98;;;-1.30;99.90;;;;;;7409371;19;19922;-72
2023/01/20 08:39:39;;;;;;;20.83;9.00;;;-1.40;99.90;;;;;;7409103;19;19945;-72
2023/01/20 08:42:10;;;;;;;18.83;8.10;;;-1.20;99.90;;;;;;7408272;19;19915;-72
2023/01/20 08:44:39;;;;;;;18.52;7.82;;;-0.10;99.90;;;;;;7405790;19;19915;-71
2023/01/20 08:47:12;;;;;;;21.02;10.43;;;0.00;99.90;;;;;;7407617;19;20351;-71
2023/01/20 08:49:44;;;;;;;20.60;10.45;;;-1.40;99.90;;;;;;7408404;19;19915;-71
2023/01/20 08:52:16;;;;;;;17.30;7.47;;;-1.30;99.90;;;;;;7408964;19;19943;-72
2023/01/20 08:54:45;;;;;;;18.73;8.65;;;-0.30;99.90;;;;;;7407546;19;19926;-71
2023/01/20 08:57:15;;;;;;;19.95;8.60;;;0.10;99.90;;;;;;7404616;19;20335;-72
2023/01/20 08:59:45;;;;;;;22.08;9.70;;;-0.10;99.90;;;;;;7404988;19;19919;-72
2023/01/20 09:02:14;;;;;;;19.55;8.85;;;;;;;;;;7389920;19;19907;-71
2023/01/20 09:04:48;;;;;;;20.33;9.30;;;-0.40;99.90;;;;;;7380509;19;19922;-71
2023/01/20 09:07:18;;;;;;;25.45;11.30;;;-0.50;99.90;;;;;;7373619;19;19961;-71
2023/01/20 09:09:48;;;;;;;24.77;9.75;;;0.40;99.90;;;;;;7402810;19;20261;-71
2023/01/20 09:12:18;;;;;;;22.75;9.65;;;;;;;;;;7297290;19;94274;-72
2023/01/20 09:14:47;;;;;;;21.58;9.25;;;-0.30;99.90;;;;;;7383892;19;19952;-71
2023/01/20 09:17:16;;;;;;;27.08;10.45;;;;;;;;;;7383351;19;19925;-71
2023/01/20 09:19:48;;;;;;;22.17;10.55;;;-1.00;99.90;;;;;;7377596;19;19929;-71
2023/01/20 09:22:19;;;;;;;26.10;10.43;;;;;;;;;;7383115;19;19966;-71
2023/01/20 09:24:48;;;;;;;27.08;11.88;;;0.00;99.90;;;;;;7382547;19;19958;-71
2023/01/20 09:27:22;;;;;;;23.73;10.25;;;;;;;;;;7306828;19;19919;-71
2023/01/20 09:29:51;;;;;;;20.75;9.23;;;-0.10;99.90;;;;;;7383807;19;19915;-71
2023/01/20 09:32:20;;;;;;;24.27;10.32;;;-0.30;99.90;;;;;;7385042;19;19990;-71
2023/01/20 09:34:51;;;;;;;20.88;9.70;;;0.20;99.90;;;;;;7385788;19;19938;-71
2023/01/20 09:45:50;;;;;;;19.05;9.48;;;0.20;99.90;;;;;;7386486;19;19923;-71
2023/01/20 09:54:16;;;;;;;22.58;9.88;;;-0.60;99.90;;;;;;7385293;19;19931;-71
2023/01/20 09:56:49;;;;;;;22.55;9.65;;;-0.80;99.90;;;;;;7396248;19;20286;-70
2023/01/20 09:59:24;;;;;;;24.38;10.32;;;-0.70;99.90;;;;;;7405457;19;19915;-71
2023/01/20 10:01:58;;;;;;;25.75;10.75;;;-0.10;99.90;;;;;;7408229;19;19922;-71
2023/01/20 10:04:33;;;;;;;29.65;10.05;;;0.30;99.90;;;;;;7404332;19;19914;-71
2023/01/20 10:07:12;;;;;;;26.17;9.50;;;-0.10;99.90;;;;;;7408732;19;19926;-71
2023/01/20 10:09:47;;;;;;;19.70;9.43;;;-0.70;99.90;;;;;;7405407;19;19914;-71
2023/01/20 10:12:21;;;;;;;22.95;9.82;;;-0.80;99.90;;;;;;7408564;19;20347;-71
2023/01/20 10:14:56;;;;;;;21.25;9.60;;;0.10;99.90;;;;;;7407049;19;19922;-71
2023/01/20 10:17:32;;;;;;;22.63;10.27;;;0.70;99.90;;;;;;7404892;19;19970;-71
2023/01/20 10:20:05;;;;;;;20.23;9.23;;;-0.30;99.90;;;;;;7407712;19;20266;-71
2023/01/20 10:22:42;;;;;;;18.10;7.70;;;0.00;99.90;;;;;;7405096;19;19921;-72
2023/01/20 10:25:16;;;;;;;23.60;9.18;;;0.20;99.90;;;;;;7402894;19;19934;-71
2023/01/20 10:27:53;;;;;;;19.38;7.95;;;0.00;99.90;;;;;;7405230;19;19915;-71
2023/01/20 10:30:26;;;;;;;22.02;9.30;;;0.10;99.90;;;;;;7406166;19;19914;-72
2023/01/20 10:33:00;;;;;;;19.50;8.98;;;-0.10;99.90;;;;;;7405550;19;19914;-71
2023/01/20 10:35:34;;;;;;;20.65;8.93;;;-0.10;99.90;;;;;;7407897;19;19925;-71
2023/01/20 10:38:09;;;;;;;21.05;9.20;;;-0.20;99.90;;;;;;7404921;19;19937;-71
2023/01/20 10:40:44;;;;;;;22.35;9.43;;;-0.60;99.90;;;;;;7404916;19;19919;-71
2023/01/20 10:43:15;;;;;;;25.13;9.10;;;-0.60;99.90;;;;;;7401648;19;20269;-70
2023/01/20 10:45:59;;;;;;;19.90;8.52;;;0.10;99.90;;;;;;7404641;19;19923;-71
2023/01/20 10:48:53;;;;;;;19.55;9.27;;;-0.50;99.90;;;;;;7408752;19;19915;-70
2023/01/20 10:51:28;;;;;;;18.65;8.63;;;-0.60;99.90;;;;;;7403589;19;20347;-71
2023/01/20 10:54:15;;;;;;;18.70;7.60;;;0.10;99.90;;;;;;7403889;19;20307;-70
2023/01/20 10:56:52;;;;;;;16.35;7.50;;;0.30;99.90;;;;;;7403743;19;19918;-71
2023/01/20 10:59:30;;;;;;;19.48;8.93;;;0.50;99.90;;;;;;7405480;19;19931;-71
2023/01/20 11:02:03;;;;;;;17.77;8.68;;;0.30;99.90;;;;;;7405378;19;19923;-71
2023/01/20 11:04:34;;;;;;;21.20;8.77;;;-0.40;99.90;;;;;;7405985;19;19939;-71
2023/01/20 11:07:07;;;;;;;20.50;9.70;;;0.90;99.90;;;;;;7399875;19;20051;-71
2023/01/20 11:09:40;;;;;;;20.77;9.43;;;-0.20;99.90;;;;;;7372252;19;19932;-72
2023/01/20 11:12:15;;;;;;;17.88;8.60;;;-0.60;99.90;;;;;;7381356;19;19926;-72
2023/01/20 11:14:45;;;;;;;22.35;9.43;;;0.30;99.90;;;;;;7382113;19;19930;-72
2023/01/20 11:19:52;;;;;;;20.80;9.07;;;0.30;99.90;;;;;;7259133;19;2984696;-70
2023/01/20 11:22:29;;;;;;;21.27;8.90;;;0.10;99.90;;;;;;7416952;19;19910;-71
2023/01/20 11:27:08;;;;;;;21.70;8.52;;;1.40;99.90;;;;;;7412483;19;20773;-71
2023/01/20 11:29:42;;;;;;;;;;;2.20;99.90;;;;;;7414330;19;19933;-71
2023/01/20 11:32:31;;;;;;;20.23;8.35;;;2.10;99.90;;;;;;7377407;19;19966;-71
2023/01/20 11:35:01;;;;;;;18.30;8.35;;;1.40;99.90;;;;;;7411568;19;19923;-71
2023/01/20 11:37:37;;;;;;;29.98;10.02;;;1.60;99.90;;;;;;7413822;19;20382;-71
2023/01/20 11:40:22;;;;;;;20.05;8.32;;;1.60;99.90;;;;;;7411927;19;19919;-70
2023/01/20 11:42:55;;;;;;;20.33;9.27;;;2.10;99.90;;;;;;7411472;19;20382;-71
2023/01/20 11:45:31;;;;;;;17.45;8.43;;;2.40;99.90;;;;;;7223064;19;87335;-70
2023/01/20 11:48:06;;;;;;;17.75;8.25;;;1.40;99.90;;;;;;7358754;19;19922;-72
2023/01/20 11:50:38;;;;;;;18.58;8.77;;;2.10;99.90;;;;;;7410982;19;19934;-71
2023/01/20 11:53:18;;;;;;;22.75;9.23;;;3.10;99.90;;;;;;7411643;19;19929;-72
2023/01/20 11:55:50;;;;;;;17.45;7.50;;;2.10;99.90;;;;;;7415419;19;19922;-71
2023/01/20 11:58:24;;;;;;;20.48;8.30;;;3.10;99.90;;;;;;7414634;19;19915;-71
2023/01/20 12:01:00;;;;;;;18.35;8.55;;;3.30;99.90;;;;;;7416438;19;20347;-71
2023/01/20 12:04:03;;;;;;;21.13;9.48;;;1.70;99.90;;;;;;7415341;19;20336;-71
2023/01/20 12:06:36;;;;;;;16.13;7.70;;;2.80;99.90;;;;;;7412681;19;19914;-71
2023/01/20 12:09:11;;;;;;;15.57;7.47;;;2.60;99.90;;;;;;7415226;19;19919;-71
2023/01/20 12:11:47;;;;;;;19.05;8.65;;;2.20;99.90;;;;;;7414806;19;20248;-71
2023/01/20 12:14:26;;;;;;;17.38;8.02;;;2.90;99.90;;;;;;7414592;19;19922;-71
2023/01/20 12:17:23;;;;;;;18.65;8.65;;;2.80;99.90;;;;;;7414576;19;19913;-71
2023/01/20 12:20:07;;;;;;;19.88;7.35;;;2.50;99.90;;;;;;7436667;19;19930;-72
2023/01/20 12:22:45;;;;;;;19.63;8.07;;;2.50;99.90;;;;;;7437311;19;19922;-71
2023/01/20 12:25:21;;;;;;;18.92;8.30;;;1.60;99.90;;;;;;7436632;19;19927;-71
2023/01/20 12:27:53;;;;;;;21.33;7.97;;;2.20;99.90;;;;;;7436517;19;19931;-71
2023/01/20 12:30:44;;;;;;;15.75;8.40;;;2.60;99.90;;;;;;7434981;19;20368;-71
2023/01/20 12:33:25;;;;;;;22.90;8.30;;;2.50;99.90;;;;;;7418993;19;19932;-72
2023/01/20 12:36:27;;;;;;;17.55;7.93;;;3.20;99.90;;;;;;7410191;19;19982;-71
2023/01/20 12:39:20;;;;;;;15.32;7.43;;;2.60;99.90;;;;;;7380449;19;19931;-72
2023/01/20 12:42:18;;;;;;;18.10;8.27;;;3.30;99.90;;;;;;7277206;19;100530;-72
2023/01/20 12:44:51;;;;;;;20.73;8.02;;;2.30;99.90;;;;;;7290510;19;20606;-73
2023/01/20 12:47:38;;;;;;;17.92;8.25;;;2.40;99.90;;;;;;7382669;19;19919;-73
2023/01/20 12:51:09;;;;;;;18.02;8.13;;;-0.20;99.90;;;;;;7130756;19;89135;-71
2023/01/20 12:56:18;;;;;;;19.90;9.03;;;2.10;99.90;;;;;;7205474;19;2994541;-71
2023/01/20 12:59:40;;;;;;;21.70;8.10;;;1.30;99.90;;;;;;7151950;19;2978141;-71
2023/01/20 13:02:36;;;;;;;24.50;8.13;;;0.90;99.90;;;;;;7359865;19;20306;-71
2023/01/20 13:05:31;;;;;;;19.60;9.32;;;1.90;99.90;;;;;;7417752;19;19927;-71
2023/01/20 13:10:55;;;;;;;19.48;9.00;;;0.60;99.90;;;;;;7413747;19;20737;-72
2023/01/20 13:13:41;;;;;;;18.67;7.40;;;0.40;99.90;;;;;;4793940;19;15040033;-73
2023/01/20 13:16:32;;;;;;;20.48;9.60;;;0.80;99.90;;;;;;7415858;19;20693;-71
2023/01/20 13:19:12;;;;;;;19.33;8.90;;;0.60;99.90;;;;;;7412046;19;19974;-71
2023/01/20 13:21:41;;;;;;;20.02;9.30;;;0.60;99.90;;;;;;7415552;19;19910;-72
2023/01/20 13:24:23;;;;;;;20.70;9.82;;;0.90;99.90;;;;;;7414405;19;20283;-73
2023/01/20 13:26:52;;;;;;;21.80;9.30;;;0.60;99.90;;;;;;7428580;19;19923;-72
2023/01/20 13:29:24;;;;;;;22.35;8.98;;;0.50;99.90;;;;;;7437416;19;19914;-72
2023/01/20 13:31:55;;;;;;;18.38;8.30;;;0.60;99.90;;;;;;7438469;19;19919;-72
2023/01/20 13:34:40;;;;;;;21.80;8.95;;;0.60;99.90;;;;;;7437066;19;19915;-72
2023/01/20 13:37:29;;;;;;;23.63;9.32;;;0.70;99.90;;;;;;7437058;19;19919;-72
2023/01/20 13:39:59;;;;;;;24.95;9.27;;;1.20;99.90;;;;;;7435920;19;19974;-72
2023/01/20 13:42:49;;;;;;;18.25;9.02;;;0.40;99.90;;;;;;7437043;19;19922;-71
2023/01/20 13:45:21;;;;;;;20.38;9.57;;;0.90;99.90;;;;;;7438753;19;19970;-76
2023/01/20 13:48:02;;;;;;;20.13;10.80;;;0.90;99.90;;;;;;7435082;19;19922;-75